createdAt,value
2022-10-12T00:00:21.953Z,9.711559
2022-10-12T00:01:21.949Z,9.711543
2022-10-12T00:02:22.001Z,9.711550
2022-10-12T00:03:21.955Z,9.711538
2022-10-12T00:04:21.929Z,9.711608
2022-10-12T00:05:21.924Z,9.711548
2022-10-12T00:06:21.912Z,9.711567
2022-10-12T00:07:21.907Z,9.711553
2022-10-12T00:08:21.894Z,9.711596
2022-10-12T00:09:21.885Z,9.711575
2022-10-12T00:10:21.885Z,9.711442
2022-10-12T00:11:21.891Z,9.711538
2022-10-12T00:12:22.551Z,9.711639
2022-10-12T00:13:21.864Z,9.711590
2022-10-12T00:14:21.852Z,9.711473
2022-10-12T00:15:21.844Z,9.711594
2022-10-12T00:16:21.844Z,9.711649
2022-10-12T00:17:21.827Z,9.711577
2022-10-12T00:18:21.825Z,9.711494
2022-10-12T00:19:21.817Z,9.711542
2022-10-12T00:20:21.807Z,9.711575
2022-10-12T00:21:21.792Z,9.711613
2022-10-12T00:22:21.784Z,9.711446
2022-10-12T00:23:21.777Z,9.711319
2022-10-12T00:24:21.775Z,9.711496
2022-10-12T00:25:21.767Z,9.711506
2022-10-12T00:26:21.760Z,9.711582
2022-10-12T00:27:21.752Z,9.711625
2022-10-12T00:28:21.768Z,9.711601
2022-10-12T00:43:22.220Z,9.711450
2022-10-12T00:44:22.211Z,9.711664
2022-10-12T00:45:23.115Z,9.711788
2022-10-12T00:46:22.217Z,9.711611
2022-10-12T00:47:22.190Z,9.711153
2022-10-12T00:48:22.182Z,9.711235
2022-10-12T00:49:22.172Z,9.711381
2022-10-12T00:50:22.168Z,9.711363
2022-10-12T00:51:22.169Z,9.711674
2022-10-12T00:52:22.155Z,9.711739
2022-10-12T00:53:22.139Z,9.711750
2022-10-12T00:54:22.138Z,9.711518
2022-10-12T00:55:23.600Z,9.711482
2022-10-12T00:56:23.126Z,9.711807
2022-10-12T00:57:22.107Z,9.711123
2022-10-12T00:58:22.100Z,9.711420
2022-10-12T00:59:22.090Z,9.711763
2022-10-12T01:00:22.090Z,9.711452
2022-10-12T01:01:22.163Z,9.711785
2022-10-12T01:02:22.069Z,9.711597
2022-10-12T01:03:22.091Z,9.711622
2022-10-12T01:04:22.056Z,9.711495
2022-10-12T01:05:22.060Z,9.711603
2022-10-12T01:06:22.611Z,9.711623
2022-10-12T01:07:22.040Z,9.711611
2022-10-12T01:08:22.197Z,9.711808
2022-10-12T01:09:22.018Z,9.711264
2022-10-12T01:10:22.007Z,9.711527
2022-10-12T01:11:21.994Z,9.711542
2022-10-12T01:12:22.001Z,9.711558
2022-10-12T01:13:21.980Z,9.711559
2022-10-12T01:14:21.978Z,9.711592
2022-10-12T01:15:21.965Z,9.711335
2022-10-12T01:16:22.607Z,9.711149
2022-10-12T01:17:21.979Z,9.711392
2022-10-12T01:18:21.961Z,9.711662
2022-10-12T01:19:21.934Z,9.711632
2022-10-12T01:20:21.925Z,9.711467
2022-10-12T01:21:21.930Z,9.711405
2022-10-12T01:22:21.913Z,9.711484
2022-10-12T01:23:21.906Z,9.711367
2022-10-12T01:24:21.900Z,9.711040
2022-10-12T01:25:22.677Z,9.711029
2022-10-12T01:26:21.893Z,9.711125
2022-10-12T01:27:22.683Z,9.711371
2022-10-12T01:28:21.909Z,9.711122
2022-10-12T01:29:22.685Z,9.711107
2022-10-12T01:30:21.851Z,9.710969
2022-10-12T01:31:21.845Z,9.710895
2022-10-12T01:32:21.832Z,9.711294
2022-10-12T01:33:21.833Z,9.711282
2022-10-12T01:34:21.816Z,9.711496
2022-10-12T01:35:21.811Z,9.711724
2022-10-12T01:36:21.808Z,9.711325
2022-10-12T01:37:21.793Z,9.711439
2022-10-12T01:38:21.786Z,9.711588
2022-10-12T01:39:21.792Z,9.711663
2022-10-12T01:40:21.793Z,9.711624
2022-10-12T01:41:21.760Z,9.711535
2022-10-12T01:42:21.758Z,9.711409
2022-10-12T01:43:22.607Z,9.711270
2022-10-12T01:44:21.739Z,9.711259
2022-10-12T01:45:23.686Z,9.711294
2022-10-12T01:46:21.730Z,9.711452
2022-10-12T01:47:21.717Z,9.711436
2022-10-12T01:48:21.713Z,9.711515
2022-10-12T01:49:21.709Z,9.711821
2022-10-12T01:50:21.695Z,9.711740
2022-10-12T01:51:21.690Z,9.711596
2022-10-12T01:52:21.683Z,9.711532
2022-10-12T01:53:21.675Z,9.711603
2022-10-12T01:54:21.674Z,9.711467
2022-10-12T01:55:21.661Z,9.711530
2022-10-12T01:56:22.185Z,9.711635
2022-10-12T01:57:21.650Z,9.711573
2022-10-12T01:58:21.643Z,9.711672
2022-10-12T01:59:21.639Z,9.711497
2022-10-12T02:00:21.619Z,9.711699
2022-10-12T02:01:21.744Z,9.711748
2022-10-12T02:02:21.612Z,9.711679
2022-10-12T02:03:21.600Z,9.711520
2022-10-12T02:04:21.603Z,9.711561
2022-10-12T02:05:21.584Z,9.712125
2022-10-12T02:27:09.918Z,9.711656
2022-10-12T02:28:09.947Z,9.711642
2022-10-12T02:29:09.894Z,9.711664
2022-10-12T02:30:09.891Z,9.711700
2022-10-12T02:31:09.872Z,9.711673
2022-10-12T02:32:10.431Z,9.711693
2022-10-12T02:33:09.852Z,9.711684
2022-10-12T02:34:09.845Z,9.711660
2022-10-12T02:35:09.850Z,9.711701
2022-10-12T02:36:09.883Z,9.711785
2022-10-12T02:37:09.829Z,9.711753
2022-10-12T02:38:09.815Z,9.711713
2022-10-12T02:39:09.806Z,9.711676
2022-10-12T02:40:09.800Z,9.711649
2022-10-12T02:41:09.795Z,9.711654
2022-10-12T02:42:09.795Z,9.711709
2022-10-12T02:43:11.403Z,9.711690
2022-10-12T02:44:10.765Z,9.711635
2022-10-12T02:45:09.747Z,9.711652
2022-10-12T02:46:09.755Z,9.711672
2022-10-12T02:47:09.751Z,9.711779
2022-10-12T02:48:09.737Z,9.711762
2022-10-12T02:49:09.734Z,9.711716
2022-10-12T02:50:09.729Z,9.711681
2022-10-12T02:51:09.713Z,9.711671
2022-10-12T02:52:09.713Z,9.711668
2022-10-12T02:53:09.695Z,9.711681
2022-10-12T02:54:09.692Z,9.711636
2022-10-12T02:55:09.685Z,9.711659
2022-10-12T02:56:09.718Z,9.711666
2022-10-12T02:57:09.664Z,9.711635
2022-10-12T02:58:09.667Z,9.711628
2022-10-12T02:59:09.676Z,9.711582
2022-10-12T03:00:09.640Z,9.711621
2022-10-12T03:01:09.697Z,9.711599
2022-10-12T03:02:09.625Z,9.711633
2022-10-12T03:03:09.630Z,9.711622
2022-10-12T03:04:09.608Z,9.711622
2022-10-12T03:05:09.599Z,9.711656
2022-10-12T03:06:09.594Z,9.711639
2022-10-12T03:07:09.586Z,9.711633
2022-10-12T03:08:09.585Z,9.711659
2022-10-12T03:09:09.577Z,9.711714
2022-10-12T03:10:09.559Z,9.711630
2022-10-12T03:11:09.554Z,9.711648
2022-10-12T03:12:09.548Z,9.711686
2022-10-12T03:13:09.539Z,9.711691
2022-10-12T03:14:10.425Z,9.711681
2022-10-12T03:15:09.521Z,9.711834
2022-10-12T03:16:09.513Z,9.711743
2022-10-12T03:17:09.507Z,9.711699
2022-10-12T03:18:09.493Z,9.711522
2022-10-12T03:19:09.499Z,9.711349
2022-10-12T03:20:11.352Z,9.711345
2022-10-12T03:21:09.482Z,9.711393
2022-10-12T03:22:09.474Z,9.711323
2022-10-12T03:23:10.356Z,9.711565
2022-10-12T03:24:09.450Z,9.711706
2022-10-12T03:25:09.437Z,9.711629
2022-10-12T03:26:09.432Z,9.711780
2022-10-12T03:27:09.430Z,9.711689
2022-10-12T03:28:09.535Z,9.711748
2022-10-12T03:29:09.414Z,9.711793
2022-10-12T03:30:09.408Z,9.711649
2022-10-12T03:31:11.386Z,9.711774
2022-10-12T03:32:09.396Z,9.712072
2022-10-12T03:33:09.385Z,9.711682
2022-10-12T03:34:09.375Z,9.711646
2022-10-12T03:35:09.367Z,9.711945
2022-10-12T03:36:09.368Z,9.711749
2022-10-12T03:37:09.363Z,9.711918
2022-10-12T03:38:09.341Z,9.711769
2022-10-12T03:39:09.345Z,9.711593
2022-10-12T03:40:09.335Z,9.711399
2022-10-12T03:41:09.315Z,9.711480
2022-10-12T03:42:09.306Z,9.711478
2022-10-12T03:43:09.322Z,9.711467
2022-10-12T03:44:09.302Z,9.711480
2022-10-12T03:45:09.292Z,9.711503
2022-10-12T03:46:09.276Z,9.711481
2022-10-12T03:47:09.275Z,9.711538
2022-10-12T03:48:09.271Z,9.711546
2022-10-12T03:49:09.253Z,9.711458
2022-10-12T03:50:09.259Z,9.711487
2022-10-12T03:51:09.246Z,9.711451
2022-10-12T03:52:09.239Z,9.711476
2022-10-12T03:53:09.225Z,9.711505
2022-10-12T03:54:09.225Z,9.711443
2022-10-12T03:55:09.220Z,9.711451
2022-10-12T03:56:09.203Z,9.711468
2022-10-12T03:57:09.196Z,9.711470
2022-10-12T03:58:09.937Z,9.711458
2022-10-12T03:59:09.187Z,9.711399
2022-10-12T04:00:09.174Z,9.711456
2022-10-12T04:01:09.239Z,9.711528
2022-10-12T04:02:13.069Z,9.711558
2022-10-12T04:03:10.169Z,9.711566
2022-10-12T04:04:09.155Z,9.711595
2022-10-12T04:05:09.129Z,9.711604
2022-10-12T04:06:09.134Z,9.711635
2022-10-12T04:07:09.125Z,9.711620
2022-10-12T04:08:09.132Z,9.711665
2022-10-12T04:09:09.109Z,9.711617
2022-10-12T04:10:09.102Z,9.711636
2022-10-12T04:11:09.140Z,9.711624
2022-10-12T04:12:09.088Z,9.711624
2022-10-12T04:13:09.085Z,9.711678
2022-10-12T04:14:09.084Z,9.711646
2022-10-12T04:15:09.121Z,9.711650
2022-10-12T04:16:09.052Z,9.711697
2022-10-12T04:17:09.042Z,9.711646
2022-10-12T04:18:09.034Z,9.711685
2022-10-12T04:23:16.964Z,9.711579
2022-10-12T04:24:16.975Z,9.711679
2022-10-12T04:25:18.874Z,9.711758
2022-10-12T04:26:17.833Z,9.711770
2022-10-12T04:27:16.930Z,9.711741
2022-10-12T04:28:16.992Z,9.711787
2022-10-12T04:29:16.909Z,9.711613
2022-10-12T04:30:16.920Z,9.711650
2022-10-12T04:31:16.909Z,9.711699
2022-10-12T04:32:16.893Z,9.711592
2022-10-12T04:33:16.902Z,9.711761
2022-10-12T04:34:16.877Z,9.711773
2022-10-12T04:35:16.870Z,9.711799
2022-10-12T04:36:16.871Z,9.711780
2022-10-12T04:37:16.853Z,9.711828
2022-10-12T04:38:16.846Z,9.711906
2022-10-12T04:39:18.771Z,9.711919
2022-10-12T04:40:17.338Z,9.711947
2022-10-12T04:41:16.824Z,9.712038
2022-10-12T04:42:16.821Z,9.711860
2022-10-12T04:43:16.812Z,9.711982
2022-10-12T04:44:16.812Z,9.711847
2022-10-12T04:45:16.797Z,9.711878
2022-10-12T04:46:16.791Z,9.711989
2022-10-12T04:47:16.778Z,9.712115
2022-10-12T04:48:17.765Z,9.711988
2022-10-12T04:49:16.772Z,9.711827
2022-10-12T04:50:17.267Z,9.711807
2022-10-12T04:51:16.749Z,9.711865
2022-10-12T04:52:16.750Z,9.711806
2022-10-12T04:53:16.756Z,9.711878
2022-10-12T04:54:16.744Z,9.711659
2022-10-12T04:55:18.387Z,9.711625
2022-10-12T04:56:17.354Z,9.711664
2022-10-12T04:57:16.740Z,9.711643
2022-10-12T04:58:16.708Z,9.711640
2022-10-12T05:01:25.728Z,9.711402
2022-10-12T05:02:25.652Z,9.711522
2022-10-12T05:03:25.637Z,9.711545
2022-10-12T05:04:27.503Z,9.711460
2022-10-12T05:05:27.485Z,9.711484
2022-10-12T05:06:25.605Z,9.711633
2022-10-12T05:07:26.470Z,9.711672
2022-10-12T05:08:25.605Z,9.711679
2022-10-12T05:09:28.410Z,9.711717
2022-10-12T05:10:25.571Z,9.711661
2022-10-12T05:11:25.566Z,9.711676
2022-10-12T05:12:25.553Z,9.711680
2022-10-12T05:13:25.549Z,9.711719
2022-10-12T05:14:25.539Z,9.711657
2022-10-12T05:15:25.537Z,9.711688
2022-10-12T05:16:25.520Z,9.711698
2022-10-12T05:17:25.513Z,9.711670
2022-10-12T05:18:25.528Z,9.711655
2022-10-12T05:19:25.499Z,9.711687
2022-10-12T05:20:25.503Z,9.711665
2022-10-12T05:21:25.494Z,9.711623
2022-10-12T05:22:25.509Z,9.711695
2022-10-12T05:23:25.485Z,9.711668
2022-10-12T05:24:25.459Z,9.711745
2022-10-12T05:25:25.457Z,9.711704
2022-10-12T05:26:25.447Z,9.711668
2022-10-12T05:27:28.994Z,9.711631
2022-10-12T05:28:27.022Z,9.711665
2022-10-12T05:29:36.429Z,9.711632
2022-10-12T05:30:45.354Z,9.711588
2022-10-12T05:31:25.415Z,9.711751
2022-10-12T05:35:13.883Z,9.712152
2022-10-12T05:36:13.885Z,9.711965
2022-10-12T05:37:14.810Z,9.712010
2022-10-12T05:38:13.922Z,9.712066
2022-10-12T05:39:13.878Z,9.712151
2022-10-12T05:40:13.847Z,9.712034
2022-10-12T05:41:14.754Z,9.712087
2022-10-12T05:42:14.675Z,9.711993
2022-10-12T05:43:14.827Z,9.712160
2022-10-12T05:44:13.808Z,9.712185
2022-10-12T05:45:13.802Z,9.711964
2022-10-12T05:46:14.766Z,9.711981
2022-10-12T05:47:14.789Z,9.712010
2022-10-12T05:48:13.788Z,9.712256
2022-10-12T05:54:21.124Z,9.712111
2022-10-12T05:55:21.134Z,9.712112
2022-10-12T05:56:21.119Z,9.712152
2022-10-12T05:57:21.096Z,9.712214
2022-10-12T05:58:21.088Z,9.712082
2022-10-12T05:59:21.103Z,9.712052
2022-10-12T06:00:21.072Z,9.711918
2022-10-12T06:01:21.119Z,9.711853
2022-10-12T06:02:21.054Z,9.711757
2022-10-12T06:03:25.333Z,9.711905
2022-10-12T06:04:23.086Z,9.712017
2022-10-12T06:05:21.033Z,9.711954
2022-10-12T06:06:21.023Z,9.712115
2022-10-12T06:07:21.031Z,9.712008
2022-10-12T06:08:21.012Z,9.711955
2022-10-12T06:09:21.009Z,9.711807
2022-10-12T06:10:25.262Z,9.711730
2022-10-12T06:11:22.026Z,9.711750
2022-10-12T06:12:20.981Z,9.711764
2022-10-12T06:13:22.634Z,9.711698
2022-10-12T06:14:20.987Z,9.711871
2022-10-12T06:15:20.978Z,9.711764
2022-10-12T06:16:20.950Z,9.711703
2022-10-12T06:17:20.942Z,9.711690
2022-10-12T06:18:20.950Z,9.711753
2022-10-12T06:19:20.923Z,9.711727
2022-10-12T06:20:21.921Z,9.711724
2022-10-12T06:21:33.038Z,9.711770
2022-10-12T06:22:22.899Z,9.711621
2022-10-12T06:23:20.895Z,9.711670
2022-10-12T06:24:21.517Z,9.711717
2022-10-12T06:25:20.894Z,9.711706
2022-10-12T06:26:20.866Z,9.711657
2022-10-12T06:27:20.870Z,9.711762
2022-10-12T06:28:20.875Z,9.711728
2022-10-12T06:29:20.856Z,9.711739
2022-10-12T06:30:20.845Z,9.711566
2022-10-12T06:31:20.829Z,9.711646
2022-10-12T06:32:23.498Z,9.711728
2022-10-12T06:33:20.814Z,9.711856
2022-10-12T06:34:20.812Z,9.711777
2022-10-12T06:35:20.796Z,9.711750
2022-10-12T06:36:20.788Z,9.711900
2022-10-12T06:37:48.030Z,9.711834
2022-10-12T06:38:22.807Z,9.711898
2022-10-12T06:39:20.789Z,9.711858
2022-10-12T06:40:20.762Z,9.711965
2022-10-12T06:41:21.022Z,9.712171
2022-10-12T06:42:20.750Z,9.712244
2022-10-12T06:43:21.505Z,9.711874
2022-10-12T06:44:20.732Z,9.711971
2022-10-12T06:45:20.719Z,9.711987
2022-10-12T07:27:28.276Z,9.711769
2022-10-12T07:28:28.306Z,9.711708
2022-10-12T07:29:28.310Z,9.711725
2022-10-12T07:30:28.243Z,9.711700
2022-10-12T07:31:28.255Z,9.711678
2022-10-12T07:32:28.239Z,9.711726
2022-10-12T07:33:28.231Z,9.711694
2022-10-12T07:34:28.221Z,9.711658
2022-10-12T07:35:28.202Z,9.711531
2022-10-12T07:36:47.233Z,9.711618
2022-10-12T07:37:30.887Z,9.711705
2022-10-12T07:38:28.200Z,9.711769
2022-10-12T07:39:28.182Z,9.711678
2022-10-12T07:40:28.168Z,9.711696
2022-10-12T07:41:28.157Z,9.711615
2022-10-12T07:42:28.150Z,9.711643
2022-10-12T07:43:28.176Z,9.711611
2022-10-12T07:44:28.143Z,9.711550
2022-10-12T07:45:28.153Z,9.711599
2022-10-12T07:46:28.151Z,9.711550
2022-10-12T07:47:28.113Z,9.711653
2022-10-12T07:48:28.115Z,9.711599
2022-10-12T07:49:28.097Z,9.711689
2022-10-12T07:50:28.092Z,9.711790
2022-10-12T07:51:28.084Z,9.711677
2022-10-12T07:52:28.071Z,9.711694
2022-10-12T07:53:28.101Z,9.711708
2022-10-12T07:54:29.569Z,9.711716
2022-10-12T07:55:29.057Z,9.711710
2022-10-12T07:56:28.038Z,9.711642
2022-10-12T07:57:28.032Z,9.711685
2022-10-12T07:58:28.018Z,9.711746
2022-10-12T07:59:28.024Z,9.711707
2022-10-12T08:00:28.016Z,9.711663
2022-10-12T08:01:28.039Z,9.711631
2022-10-12T08:02:27.992Z,9.711703
2022-10-12T08:03:27.985Z,9.711676
2022-10-12T08:04:27.970Z,9.711638
2022-10-12T08:05:28.000Z,9.711664
2022-10-12T08:06:27.951Z,9.711657
2022-10-12T08:07:27.947Z,9.711669
2022-10-12T08:08:27.935Z,9.711697
2022-10-12T08:09:27.932Z,9.711717
2022-10-12T08:10:27.942Z,9.711691
2022-10-12T08:11:28.889Z,9.711687
2022-10-12T08:12:27.907Z,9.711686
2022-10-12T08:13:27.919Z,9.711717
2022-10-12T08:14:27.887Z,9.711754
2022-10-12T08:15:27.886Z,9.711717
2022-10-12T08:16:27.883Z,9.711748
2022-10-12T08:17:27.887Z,9.711759
2022-10-12T08:18:28.494Z,9.711708
2022-10-12T08:19:31.731Z,9.711668
2022-10-12T08:20:29.856Z,9.711707
2022-10-12T08:21:27.839Z,9.711690
2022-10-12T08:22:27.867Z,9.711648
2022-10-12T08:23:27.819Z,9.711673
2022-10-12T08:24:27.843Z,9.711702
2022-10-12T08:25:27.805Z,9.711635
2022-10-12T08:26:27.794Z,9.711725
2022-10-12T08:27:27.780Z,9.711713
2022-10-12T08:28:27.847Z,9.711771
2022-10-12T08:29:27.774Z,9.711791
2022-10-12T08:30:27.757Z,9.711890
2022-10-12T08:31:27.757Z,9.711729
2022-10-12T08:32:27.747Z,9.711886
2022-10-12T08:33:27.748Z,9.711821
2022-10-12T08:34:27.726Z,9.711802
2022-10-12T08:35:27.719Z,9.711785
2022-10-12T08:36:27.711Z,9.711816
2022-10-12T08:37:27.709Z,9.712048
2022-10-12T08:38:27.700Z,9.711843
2022-10-12T08:39:27.695Z,9.711765
2022-10-12T08:40:27.692Z,9.711800
2022-10-12T08:41:27.676Z,9.711913
2022-10-12T08:42:27.669Z,9.712062
2022-10-12T08:43:27.681Z,9.712180
2022-10-12T08:44:27.653Z,9.712373
2022-10-12T08:45:30.580Z,9.712294
2022-10-12T08:46:28.631Z,9.711916
2022-10-12T08:47:27.627Z,9.711793
2022-10-12T08:48:28.971Z,9.711751
2022-10-12T08:49:27.743Z,9.711627
2022-10-12T08:50:27.612Z,9.711795
2022-10-12T08:51:27.597Z,9.711605
2022-10-12T08:52:27.586Z,9.711801
2022-10-12T08:53:27.577Z,9.711840
2022-10-12T08:54:27.577Z,9.711519
2022-10-12T08:55:27.565Z,9.711702
2022-10-12T08:56:27.588Z,9.711830
2022-10-12T08:57:27.546Z,9.711723
2022-10-12T08:58:27.554Z,9.711452
2022-10-12T08:59:27.530Z,9.711468
2022-10-12T09:00:27.553Z,9.711676
2022-10-12T09:01:28.577Z,9.711746
2022-10-12T09:02:28.359Z,9.711611
2022-10-12T09:03:27.496Z,9.711596
2022-10-12T09:04:27.494Z,9.711615
2022-10-12T09:05:27.484Z,9.711624
2022-10-12T09:06:27.474Z,9.711658
2022-10-12T09:07:27.462Z,9.711540
2022-10-12T09:08:27.454Z,9.711731
2022-10-12T09:09:27.449Z,9.711672
2022-10-12T09:10:28.445Z,9.711976
2022-10-12T09:11:27.434Z,9.711607
2022-10-12T09:12:27.421Z,9.711587
2022-10-12T09:13:27.428Z,9.711637
2022-10-12T09:14:27.400Z,9.711636
2022-10-12T09:15:27.406Z,9.711775
2022-10-12T09:16:27.389Z,9.711967
2022-10-12T09:17:27.385Z,9.711880
2022-10-12T09:18:27.435Z,9.712362
2022-10-12T09:19:27.370Z,9.712295
2022-10-12T09:20:27.363Z,9.712358
2022-10-12T09:21:27.352Z,9.712198
2022-10-12T09:22:27.344Z,9.712156
2022-10-12T09:23:27.329Z,9.712214
2022-10-12T09:24:27.319Z,9.712185
2022-10-12T09:25:27.320Z,9.712157
2022-10-12T09:26:27.304Z,9.712051
2022-10-12T09:27:27.986Z,9.711967
2022-10-12T09:28:27.360Z,9.712246
2022-10-12T09:29:27.295Z,9.712101
2022-10-12T09:30:27.297Z,9.712058
2022-10-12T09:31:27.286Z,9.712140
2022-10-12T09:32:27.262Z,9.712268
2022-10-12T09:33:27.257Z,9.712129
2022-10-12T09:34:27.241Z,9.712172
2022-10-12T09:35:27.233Z,9.712141
2022-10-12T09:36:27.222Z,9.712195
2022-10-12T09:37:27.219Z,9.712013
2022-10-12T09:38:27.996Z,9.711833
2022-10-12T09:39:29.107Z,9.711869
2022-10-12T09:40:28.202Z,9.711901
2022-10-12T09:41:27.183Z,9.711930
2022-10-12T09:42:27.171Z,9.712006
2022-10-12T09:43:27.188Z,9.711946
2022-10-12T09:44:27.171Z,9.711948
2022-10-12T09:45:27.153Z,9.711947
2022-10-12T09:46:27.153Z,9.712069
2022-10-12T09:47:27.139Z,9.712201
2022-10-12T09:48:27.123Z,9.712246
2022-10-12T09:49:27.119Z,9.712109
2022-10-12T09:50:27.147Z,9.712064
2022-10-12T09:51:27.111Z,9.712093
2022-10-12T09:52:27.119Z,9.712360
2022-10-12T09:53:27.103Z,9.712238
2022-10-12T09:54:27.545Z,9.712162
2022-10-12T09:55:29.378Z,9.711846
2022-10-12T09:56:27.071Z,9.711817
2022-10-12T09:57:27.061Z,9.711830
2022-10-12T09:58:27.047Z,9.711812
2022-10-12T09:59:27.038Z,9.711720
2022-10-12T10:00:27.022Z,9.711699
2022-10-12T10:01:27.038Z,9.711572
2022-10-12T10:02:27.996Z,9.711663
2022-10-12T10:03:31.411Z,9.711459
2022-10-12T10:04:27.991Z,9.711688
2022-10-12T10:05:26.985Z,9.711701
2022-10-12T10:06:27.002Z,9.711706
2022-10-12T10:07:27.007Z,9.711570
2022-10-12T10:08:26.969Z,9.711642
2022-10-12T10:09:26.968Z,9.711637
2022-10-12T10:10:30.427Z,9.711894
2022-10-12T10:11:27.937Z,9.711604
2022-10-12T10:12:26.926Z,9.711679
2022-10-12T10:13:26.923Z,9.711643
2022-10-12T10:14:26.904Z,9.711632
2022-10-12T10:15:26.900Z,9.711593
2022-10-12T10:16:26.935Z,9.711701
2022-10-12T10:17:26.887Z,9.711625
2022-10-12T10:18:26.885Z,9.711393
2022-10-12T10:19:27.417Z,9.711610
2022-10-12T10:20:26.867Z,9.711720
2022-10-12T10:21:26.852Z,9.711566
2022-10-12T10:22:26.850Z,9.711574
2022-10-12T10:23:28.461Z,9.711543
2022-10-12T10:24:26.856Z,9.711699
2022-10-12T10:25:26.866Z,9.711674
2022-10-12T10:26:26.866Z,9.711707
2022-10-12T10:27:26.810Z,9.711599
2022-10-12T10:28:27.492Z,9.711580
2022-10-12T10:29:26.825Z,9.711658
2022-10-12T10:30:32.554Z,9.711609
2022-10-12T10:31:28.793Z,9.711630
2022-10-12T10:32:26.796Z,9.711597
2022-10-12T10:33:26.763Z,9.711585
2022-10-12T10:34:26.749Z,9.711624
2022-10-12T10:35:26.781Z,9.711670
2022-10-12T10:36:26.759Z,9.711556
2022-10-12T10:37:26.743Z,9.711558
2022-10-12T10:38:28.424Z,9.711676
2022-10-12T10:39:26.713Z,9.711597
2022-10-12T10:40:26.701Z,9.711660
2022-10-12T10:41:26.719Z,9.711522
2022-10-12T10:42:26.702Z,9.711482
2022-10-12T10:43:26.696Z,9.711555
2022-10-12T10:44:26.671Z,9.711598
2022-10-12T10:45:26.659Z,9.711630
2022-10-12T10:46:26.660Z,9.711488
2022-10-12T10:47:26.640Z,9.711539
2022-10-12T10:48:26.629Z,9.711624
2022-10-12T10:49:26.623Z,9.711580
2022-10-12T10:50:26.625Z,9.711554
2022-10-12T10:51:26.657Z,9.711540
2022-10-12T10:52:26.617Z,9.711644
2022-10-12T10:53:26.592Z,9.711673
2022-10-12T10:54:26.578Z,9.711627
2022-10-12T10:55:26.573Z,9.711611
2022-10-12T10:56:26.568Z,9.711489
2022-10-12T10:57:26.590Z,9.711700
2022-10-12T10:58:26.546Z,9.711713
2022-10-12T10:59:26.552Z,9.711812
2022-10-12T11:00:38.527Z,9.711798
2022-10-12T11:01:28.582Z,9.712017
2022-10-12T11:02:28.473Z,9.711867
2022-10-12T11:03:26.514Z,9.712062
2022-10-12T11:05:01.701Z,9.711884
2022-10-12T11:05:27.055Z,9.711618
2022-10-12T11:06:27.416Z,9.711492
2022-10-12T11:07:29.913Z,9.711327
2022-10-12T21:31:32.750Z,9.711701
2022-10-12T21:32:31.836Z,9.711784
2022-10-12T21:33:31.604Z,9.711762
2022-10-12T21:34:30.807Z,9.711767
2022-10-12T21:35:30.831Z,9.711749
2022-10-12T21:36:30.801Z,9.711723
2022-10-12T21:37:30.783Z,9.711703
2022-10-12T21:38:30.779Z,9.711731
2022-10-12T21:39:30.781Z,9.711744
2022-10-12T21:40:30.758Z,9.711727
2022-10-12T21:41:30.767Z,9.711702
2022-10-12T21:42:30.743Z,9.711656
2022-10-12T21:43:30.737Z,9.711663
2022-10-12T21:44:30.737Z,9.711545
2022-10-12T21:45:30.720Z,9.711701
2022-10-12T21:46:31.610Z,9.711836
2022-10-12T21:47:30.713Z,9.711791
2022-10-12T21:48:30.698Z,9.711689
2022-10-12T21:49:30.700Z,9.711685
2022-10-12T21:50:30.689Z,9.711738
2022-10-12T21:51:30.674Z,9.711718
2022-10-12T21:52:30.668Z,9.711704
2022-10-12T21:53:30.665Z,9.711745
2022-10-12T21:54:30.681Z,9.711718
2022-10-12T21:55:30.649Z,9.711738
2022-10-12T21:56:30.653Z,9.711706
2022-10-12T21:57:30.624Z,9.711679
2022-10-12T21:58:30.615Z,9.711671
2022-10-12T21:59:30.611Z,9.711728
2022-10-12T22:00:30.645Z,9.711665
2022-10-12T22:01:30.608Z,9.711709
2022-10-12T22:02:30.591Z,9.711712
2022-10-12T22:03:30.582Z,9.711723
2022-10-12T22:04:30.573Z,9.711650
2022-10-12T22:05:30.562Z,9.711180
2022-10-12T22:06:30.563Z,9.711481
2022-10-12T22:07:30.546Z,9.711583
2022-10-12T22:08:30.542Z,9.711679
2022-10-12T22:09:30.526Z,9.711730
2022-10-12T22:10:30.529Z,9.711796
2022-10-12T22:11:30.517Z,9.711738
2022-10-12T22:12:30.514Z,9.711856
2022-10-12T22:13:30.497Z,9.711864
2022-10-12T22:14:30.486Z,9.712144
2022-10-12T22:15:30.480Z,9.712008
2022-10-12T22:16:30.524Z,9.712211
2022-10-12T22:17:30.478Z,9.712291
2022-10-12T22:18:30.463Z,9.712049
2022-10-12T22:19:31.117Z,9.711870
2022-10-12T22:20:30.441Z,9.711412
2022-10-12T22:21:30.452Z,9.711512
2022-10-12T22:22:30.435Z,9.711622
2022-10-12T22:23:30.433Z,9.711586
2022-10-12T22:24:30.423Z,9.711604
2022-10-12T22:25:30.397Z,9.711604
2022-10-12T22:26:30.396Z,9.711476
2022-10-12T22:27:30.394Z,9.711527
2022-10-12T22:28:30.440Z,9.711575
2022-10-12T22:29:30.376Z,9.711695
2022-10-12T22:30:30.358Z,9.711774
2022-10-12T22:31:30.350Z,9.711672
2022-10-12T22:32:30.339Z,9.711630
2022-10-12T22:33:31.339Z,9.711543
2022-10-12T22:34:30.345Z,9.711747
2022-10-12T22:35:30.324Z,9.711821
2022-10-12T22:36:30.310Z,9.711795
2022-10-12T22:37:30.310Z,9.711684
2022-10-12T22:38:30.298Z,9.711554
2022-10-12T22:39:30.287Z,9.711705
2022-10-12T22:40:31.122Z,9.711792
2022-10-12T22:41:30.270Z,9.711824
2022-10-12T22:42:30.270Z,9.711700
2022-10-12T22:43:30.266Z,9.711610
2022-10-12T22:44:30.254Z,9.711704
2022-10-12T22:45:31.116Z,9.711802
2022-10-12T22:46:30.241Z,9.711839
2022-10-12T22:47:30.231Z,9.711772
2022-10-12T22:48:30.223Z,9.711822
2022-10-12T22:49:31.203Z,9.711822
2022-10-12T22:50:30.203Z,9.711822
2022-10-12T22:51:30.240Z,9.711801
2022-10-12T22:52:30.700Z,9.711801
2022-10-12T22:53:30.190Z,9.711801
2022-10-12T22:54:31.131Z,9.711801
2022-10-12T22:55:30.167Z,9.711801
2022-10-12T22:56:30.164Z,9.711801
2022-10-12T22:57:30.144Z,9.711801
2022-10-12T22:58:30.142Z,9.711801
2022-10-12T22:59:30.128Z,9.711801
2022-10-12T23:00:30.166Z,9.711801
2022-10-12T23:01:30.116Z,9.711801
2022-10-12T23:02:30.103Z,9.711801
2022-10-12T23:03:30.097Z,9.712030
2022-10-12T23:04:30.093Z,9.712030
2022-10-12T23:05:30.077Z,9.712030
2022-10-12T23:06:30.071Z,9.712043
2022-10-12T23:07:30.087Z,9.711802
2022-10-12T23:08:30.059Z,9.711645
2022-10-12T23:09:30.045Z,9.711335
2022-10-12T23:10:30.040Z,9.711390
2022-10-12T23:11:30.044Z,9.711254
2022-10-12T23:12:30.023Z,9.711237
2022-10-12T23:13:30.020Z,9.711460
2022-10-12T23:14:30.010Z,9.711663
2022-10-12T23:15:29.996Z,9.711362
2022-10-12T23:16:29.997Z,9.711352
2022-10-12T23:17:29.997Z,9.711555
2022-10-12T23:18:29.997Z,9.711723
2022-10-12T23:19:29.965Z,9.711541
2022-10-12T23:20:29.958Z,9.711512
2022-10-12T23:21:29.970Z,9.711488
2022-10-12T23:22:29.936Z,9.711645
2022-10-12T23:23:29.941Z,9.711701
2022-10-12T23:24:29.927Z,9.711662
2022-10-12T23:25:29.929Z,9.711649
2022-10-12T23:26:29.906Z,9.711615
2022-10-12T23:27:29.906Z,9.711626
2022-10-12T23:28:29.934Z,9.711618
2022-10-12T23:29:30.706Z,9.711632
2022-10-12T23:30:29.881Z,9.711640
2022-10-12T23:31:29.866Z,9.711650
2022-10-12T23:32:29.855Z,9.711671
2022-10-12T23:33:30.714Z,9.711655
2022-10-12T23:34:29.838Z,9.711670
2022-10-12T23:35:29.841Z,9.711618
2022-10-12T23:36:29.829Z,9.711658
2022-10-12T23:37:29.873Z,9.711690